Sedov — UELO — position and weather

sailwx.info

Track history (hours):
 
Tides and Currents Weather Stations Pressure Air Temp Water Temp Dewpoint Dewpoint Depression Visibility Wind Speed Wind Dir Waves Ship Positions

Sedov (Russia)

Last reported at 2015-Jul-08 03:33 UTC. Time now 2015-Jul-08 04:20 UTC.
Position N 55°28' E 006°51'.

; draft 6.5 m.

Type: Sailing vessel. MMSI: 273510000.

Date/timePositionNaut miles runAvg speedWind from/ knotsBaromVisibWave heightAir tempDewpointWater temp
2015-Jul-08 03:33N 55°28' E 006°51'7 6.6
2015-Jul-08 02:34N 55°23' E 006°46'10 9.4
2015-Jul-08 01:32N 55°13' E 006°43'1010.5
2015-Jul-08 00:33N 55°03' E 006°49'9 9.5
2015-Jul-07 23:33N 54°54' E 006°56'6 6.5
2015-Jul-07 22:33N 54°48' E 006°59'12 6.1
2015-Jul-07 20:33N 54°37' E 007°06'5 5.1
2015-Jul-07 19:33N 54°32' E 007°10'5 4.7
2015-Jul-07 18:33N 54°28' E 007°13'6 6.4
2015-Jul-07 17:33N 54°22' E 007°18'7 6.9
2015-Jul-07 16:34N 54°16' E 007°24'9 8.4
2015-Jul-07 15:32N 54°09' E 007°31'9 9.7
2015-Jul-07 14:34N 54°01' E 007°39'9 8.8
2015-Jul-07 13:33N 53°53' E 007°46'7 7.0
2015-Jul-07 12:33N 53°49' E 007°56'6 5.9
2015-Jul-07 11:33N 53°45' E 008°03'7 7.3
2015-Jul-07 10:33N 53°38' E 008°08'7 6.4
2015-Jul-07 09:31N 53°32' E 008°10'1 1.0
2015-Jul-07 08:10N 53°31' E 008°08'0 0.0
2015-Jul-07 05:25N 53°31' E 008°08'0 0.0
2015-Jul-07 04:25N 53°31' E 008°08'0 0.0
2015-Jul-07 03:28N 53°31' E 008°08'0 0.0
2015-Jul-07 02:28N 53°31' E 008°08'0 0.0
2015-Jul-07 01:28N 53°31' E 008°08'0 0.0
2015-Jul-07 00:28N 53°31' E 008°08'0 0.0
2015-Jul-06 23:31N 53°31' E 008°08'0 0.0
2015-Jul-06 22:31N 53°31' E 008°08'0 0.0
2015-Jul-06 21:25N 53°31' E 008°08'0 0.0
2015-Jul-06 20:25N 53°31' E 008°08'0 0.0
2015-Jul-06 19:28N 53°31' E 008°08'0 0.0
2015-Jul-06 18:28N 53°31' E 008°08'0 0.0
2015-Jul-06 17:31N 53°31' E 008°08'0 0.0
2015-Jul-06 16:28N 53°31' E 008°08'0 0.0
2015-Jul-06 15:28N 53°31' E 008°08'0 0.0
2015-Jul-06 14:31N 53°31' E 008°08'0 0.0
2015-Jul-06 13:31N 53°31' E 008°08'0 0.0
2015-Jul-06 12:22N 53°31' E 008°08'0 0.0
2015-Jul-06 11:31N 53°31' E 008°08'0 0.0
2015-Jul-06 10:16N 53°31' E 008°08'0 0.0
2015-Jul-06 09:31N 53°31' E 008°08'0 0.0
2015-Jul-06 08:25N 53°31' E 008°08'0 0.0
2015-Jul-06 07:31N 53°31' E 008°08'0 0.0
2015-Jul-06 06:31N 53°31' E 008°08'0 0.0
2015-Jul-06 05:28N 53°31' E 008°08'0 0.0
2015-Jul-06 04:31N 53°31' E 008°08'0 0.0
2015-Jul-06 03:31N 53°31' E 008°08'0 0.0
2015-Jul-06 02:31N 53°31' E 008°08'0 0.0
2015-Jul-06 01:22N 53°31' E 008°08'0 0.0
2015-Jul-06 00:31N 53°31' E 008°08'0 0.0
2015-Jul-05 23:31N 53°31' E 008°08'0 0.0
2015-Jul-05 22:28N 53°31' E 008°08'0 0.0
2015-Jul-05 21:31N 53°31' E 008°08'0 0.0
2015-Jul-05 20:31N 53°31' E 008°08'0 0.0
2015-Jul-05 19:31N 53°31' E 008°08'0 0.0
2015-Jul-05 18:31N 53°31' E 008°08'0 0.0
2015-Jul-05 17:31N 53°31' E 008°08'0 0.0
2015-Jul-05 16:31N 53°31' E 008°08'0 0.0
2015-Jul-05 15:31N 53°31' E 008°08'0 0.0
2015-Jul-05 14:31N 53°31' E 008°08'0 0.0
2015-Jul-05 13:31N 53°31' E 008°08'0 0.0
2015-Jul-05 12:28N 53°31' E 008°08'0 0.0
2015-Jul-05 11:22N 53°31' E 008°08'0 0.0
2015-Jul-05 10:31N 53°31' E 008°08'0 0.0
2015-Jul-05 09:22N 53°31' E 008°08'0 0.0
2015-Jul-05 08:31N 53°31' E 008°08'0 0.0
2015-Jul-05 07:25N 53°31' E 008°08'0 0.0
2015-Jul-05 06:28N 53°31' E 008°08'0 0.0
2015-Jul-05 05:32N 53°31' E 008°08'0 0.0
2015-Jul-05 04:32N 53°31' E 008°08'0 0.0
2015-Jul-05 03:29N 53°31' E 008°08'0 0.0
2015-Jul-05 02:32N 53°31' E 008°08'0 0.0
2015-Jul-05 01:32N 53°31' E 008°08'0 0.0
2015-Jul-05 00:29N 53°31' E 008°08'0 0.0
2015-Jul-04 23:32N 53°31' E 008°08'0 0.0
2015-Jul-04 22:26N 53°31' E 008°08'0 0.0
2015-Jul-04 21:29N 53°31' E 008°08'0 0.0
2015-Jul-04 20:32N 53°31' E 008°08'0 0.0
2015-Jul-04 19:30N 53°31' E 008°08'0 0.0
2015-Jul-04 18:33N 53°31' E 008°08'0 0.0
2015-Jul-04 17:24N 53°31' E 008°08'0 0.0
2015-Jul-04 16:24N 53°31' E 008°08'0 0.0
2015-Jul-04 15:21N 53°31' E 008°08'0 0.0
2015-Jul-04 14:27N 53°31' E 008°08'0 0.0
2015-Jul-04 12:24N 53°31' E 008°08'0 0.0
2015-Jul-04 11:30N 53°31' E 008°08'0 0.0
2015-Jul-04 10:33N 53°31' E 008°08'1 1.3
2015-Jul-04 09:33N 53°32' E 008°09'4 4.4
2015-Jul-04 08:33N 53°36' E 008°09'9 9.1
2015-Jul-04 07:33N 53°45' E 008°03'7 7.2
2015-Jul-04 06:33N 53°49' E 007°55'7 6.9
2015-Jul-04 05:33N 53°53' E 007°44'7 6.7
2015-Jul-04 04:33N 53°58' E 007°38'7 7.0
2015-Jul-04 03:33N 54°04' E 007°31'6 6.1
2015-Jul-04 02:33N 54°09' E 007°26'6 6.2
2015-Jul-04 01:33N 54°15' E 007°21'7 6.7
2015-Jul-04 00:33N 54°21' E 007°16'8 8.1
2015-Jul-03 23:33N 54°27' E 007°07'10 9.6
2015-Jul-03 22:34N 54°33' E 006°54'1010.0
2015-Jul-03 21:33N 54°39' E 006°40'39 2.2
2015-Jul-03 03:24N 55°18' E 006°46'120 5.4
2015-Jul-02 05:20N 57°11' E 008°01'8 9.4
2015-Jul-02 04:32N 57°16' E 008°11'37 9.3
2015-Jul-02 00:32N 57°35' E 009°10'13 9.3
2015-Jul-01 23:08N 57°41' E 009°31'5 9.2
2015-Jul-01 22:33N 57°44' E 009°40'9 9.1
2015-Jul-01 21:33N 57°48' E 009°55'10 9.5
2015-Jul-01 20:33N 57°50' E 010°12'9 9.1
2015-Jul-01 19:33N 57°50' E 010°29'9 8.9
2015-Jul-01 18:33N 57°51' E 010°46'9 9.0
2015-Jul-01 17:33N 57°45' E 010°58'9 9.2
2015-Jul-01 16:33N 57°38' E 011°10'10 9.9
2015-Jul-01 15:33N 57°31' E 011°22'10 9.8
2015-Jul-01 14:33N 57°22' E 011°30'1010.0
2015-Jul-01 13:33N 57°13' E 011°37'10 9.8
2015-Jul-01 12:33N 57°03' E 011°42'10 9.7
2015-Jul-01 11:33N 56°54' E 011°48'10 9.5
2015-Jul-01 10:33N 56°45' E 011°54'10 9.9
2015-Jul-01 09:34N 56°37' E 011°44'10 9.7
2015-Jul-01 08:33N 56°28' E 011°35'9 9.2
2015-Jul-01 07:33N 56°20' E 011°27'9 9.0
2015-Jul-01 06:33N 56°12' E 011°19'9 9.1
2015-Jul-01 05:33N 56°05' E 011°09'10 9.6
2015-Jul-01 04:33N 55°57' E 011°00'74 9.1
2015-Jun-30 20:28N 54°44' E 010°54'7 7.6
2015-Jun-30 19:33N 54°38' E 010°46'9 9.2
2015-Jun-30 18:33N 54°33' E 010°33'9 9.2
2015-Jun-30 17:33N 54°29' E 010°18'8 8.1
2015-Jun-30 16:33N 54°22' E 010°11'4 3.7
2015-Jun-30 15:32N 54°19' E 010°08'0 0.0
2015-Jun-30 14:32N 54°19' E 010°08'0 0.0
2015-Jun-30 13:32N 54°19' E 010°08'0 0.0
2015-Jun-30 12:32N 54°19' E 010°08'0 0.0
2015-Jun-30 11:32N 54°19' E 010°08'0 0.0
2015-Jun-30 10:32N 54°19' E 010°08'0 0.0
2015-Jun-30 09:29N 54°19' E 010°08'0 0.0
2015-Jun-30 08:32N 54°19' E 010°08'0 0.0
2015-Jun-30 07:32N 54°19' E 010°08'0 0.0
2015-Jun-30 06:32N 54°19' E 010°08'0 0.0
2015-Jun-30 05:32N 54°19' E 010°08'0 0.0
2015-Jun-30 04:32N 54°19' E 010°08'0 0.0
2015-Jun-30 03:32N 54°19' E 010°08'0 0.0
2015-Jun-30 02:32N 54°19' E 010°08'0 0.0
2015-Jun-30 01:32N 54°19' E 010°08'0 0.0
2015-Jun-30 00:32N 54°19' E 010°08'0 0.0
2015-Jun-29 23:32N 54°19' E 010°08'0 0.0
2015-Jun-29 22:32N 54°19' E 010°08'0 0.0
2015-Jun-29 21:32N 54°19' E 010°08'0 0.0
2015-Jun-29 20:29N 54°19' E 010°08'0 0.0
2015-Jun-29 19:32N 54°19' E 010°08'0 0.0
2015-Jun-29 18:32N 54°19' E 010°08'0 0.0
2015-Jun-29 17:29N 54°19' E 010°08'0 0.0
2015-Jun-29 16:32N 54°19' E 010°08'0 0.0
2015-Jun-29 15:29N 54°19' E 010°08'0 0.0
2015-Jun-29 14:32N 54°19' E 010°08'0 0.0
2015-Jun-29 13:32N 54°19' E 010°08'0 0.0
2015-Jun-29 12:29N 54°19' E 010°08'0 0.0
2015-Jun-29 11:32N 54°19' E 010°08'0 0.0
2015-Jun-29 10:32N 54°19' E 010°08'0 0.0
2015-Jun-29 09:26N 54°19' E 010°08'0 0.0
2015-Jun-29 08:32N 54°19' E 010°08'0 0.0
2015-Jun-29 07:32N 54°19' E 010°08'0 0.0
2015-Jun-29 06:32N 54°19' E 010°08'0 0.0
2015-Jun-29 05:32N 54°19' E 010°08'0 0.0
2015-Jun-29 04:32N 54°19' E 010°08'0 0.0
2015-Jun-29 03:32N 54°19' E 010°08'0 0.0
2015-Jun-29 02:32N 54°19' E 010°08'0 0.0
2015-Jun-29 01:29N 54°19' E 010°08'0 0.0
2015-Jun-29 00:32N 54°19' E 010°08'0 0.0
2015-Jun-28 23:29N 54°19' E 010°08'0 0.0
2015-Jun-28 22:32N 54°19' E 010°08'0 0.0
2015-Jun-28 21:32N 54°19' E 010°08'0 0.0
2015-Jun-28 20:32N 54°19' E 010°08'0 0.0
2015-Jun-28 19:32N 54°19' E 010°08'0 0.0
2015-Jun-28 14:32N 54°19' E 010°08'0 0.0
2015-Jun-28 13:32N 54°19' E 010°08'0 0.0
2015-Jun-28 12:32N 54°19' E 010°08'0 0.0
2015-Jun-28 11:32N 54°19' E 010°08'0 0.0
2015-Jun-28 10:29N 54°19' E 010°08'0 0.0
2015-Jun-28 09:29N 54°19' E 010°08'0 0.0
2015-Jun-28 08:32N 54°19' E 010°08'0 0.0
2015-Jun-28 07:29N 54°19' E 010°08'0 0.0
2015-Jun-28 06:32N 54°19' E 010°08'0 0.0
2015-Jun-28 05:32N 54°19' E 010°08'0 0.0
2015-Jun-28 04:32N 54°19' E 010°08'  
Track history (hours):
 
Tides and Currents Weather Stations Pressure Air Temp Water Temp Dewpoint Dewpoint Depression Visibility Wind Speed Wind Dir Waves Ship Positions

Sedov (Russia)

Last reported at 2015-Jul-08 03:33 UTC. Time now 2015-Jul-08 04:20 UTC.
Position N 55°28' E 006°51'.

; draft 6.5 m.

Type: Sailing vessel. MMSI: 273510000.

Date/timePositionNaut miles runAvg speedWind from/ knotsBaromVisibWave heightAir tempDewpointWater temp
2015-Jul-08 03:33N 55°28' E 006°51'7 6.6
2015-Jul-08 02:34N 55°23' E 006°46'10 9.4
2015-Jul-08 01:32N 55°13' E 006°43'1010.5
2015-Jul-08 00:33N 55°03' E 006°49'9 9.5
2015-Jul-07 23:33N 54°54' E 006°56'6 6.5
2015-Jul-07 22:33N 54°48' E 006°59'12 6.1
2015-Jul-07 20:33N 54°37' E 007°06'5 5.1
2015-Jul-07 19:33N 54°32' E 007°10'5 4.7
2015-Jul-07 18:33N 54°28' E 007°13'6 6.4
2015-Jul-07 17:33N 54°22' E 007°18'7 6.9
2015-Jul-07 16:34N 54°16' E 007°24'9 8.4
2015-Jul-07 15:32N 54°09' E 007°31'9 9.7
2015-Jul-07 14:34N 54°01' E 007°39'9 8.8
2015-Jul-07 13:33N 53°53' E 007°46'7 7.0
2015-Jul-07 12:33N 53°49' E 007°56'6 5.9
2015-Jul-07 11:33N 53°45' E 008°03'7 7.3
2015-Jul-07 10:33N 53°38' E 008°08'7 6.4
2015-Jul-07 09:31N 53°32' E 008°10'1 1.0
2015-Jul-07 08:10N 53°31' E 008°08'0 0.0
2015-Jul-07 05:25N 53°31' E 008°08'0 0.0
2015-Jul-07 04:25N 53°31' E 008°08'0 0.0
2015-Jul-07 03:28N 53°31' E 008°08'0 0.0
2015-Jul-07 02:28N 53°31' E 008°08'0 0.0
2015-Jul-07 01:28N 53°31' E 008°08'0 0.0
2015-Jul-07 00:28N 53°31' E 008°08'0 0.0
2015-Jul-06 23:31N 53°31' E 008°08'0 0.0
2015-Jul-06 22:31N 53°31' E 008°08'0 0.0
2015-Jul-06 21:25N 53°31' E 008°08'0 0.0
2015-Jul-06 20:25N 53°31' E 008°08'0 0.0
2015-Jul-06 19:28N 53°31' E 008°08'0 0.0
2015-Jul-06 18:28N 53°31' E 008°08'0 0.0
2015-Jul-06 17:31N 53°31' E 008°08'0 0.0
2015-Jul-06 16:28N 53°31' E 008°08'0 0.0
2015-Jul-06 15:28N 53°31' E 008°08'0 0.0
2015-Jul-06 14:31N 53°31' E 008°08'0 0.0
2015-Jul-06 13:31N 53°31' E 008°08'0 0.0
2015-Jul-06 12:22N 53°31' E 008°08'0 0.0
2015-Jul-06 11:31N 53°31' E 008°08'0 0.0
2015-Jul-06 10:16N 53°31' E 008°08'0 0.0
2015-Jul-06 09:31N 53°31' E 008°08'0 0.0
2015-Jul-06 08:25N 53°31' E 008°08'0 0.0
2015-Jul-06 07:31N 53°31' E 008°08'0 0.0
2015-Jul-06 06:31N 53°31' E 008°08'0 0.0
2015-Jul-06 05:28N 53°31' E 008°08'0 0.0
2015-Jul-06 04:31N 53°31' E 008°08'0 0.0
2015-Jul-06 03:31N 53°31' E 008°08'0 0.0
2015-Jul-06 02:31N 53°31' E 008°08'0 0.0
2015-Jul-06 01:22N 53°31' E 008°08'0 0.0
2015-Jul-06 00:31N 53°31' E 008°08'0 0.0
2015-Jul-05 23:31N 53°31' E 008°08'0 0.0
2015-Jul-05 22:28N 53°31' E 008°08'0 0.0
2015-Jul-05 21:31N 53°31' E 008°08'0 0.0
2015-Jul-05 20:31N 53°31' E 008°08'0 0.0
2015-Jul-05 19:31N 53°31' E 008°08'0 0.0
2015-Jul-05 18:31N 53°31' E 008°08'0 0.0
2015-Jul-05 17:31N 53°31' E 008°08'0 0.0
2015-Jul-05 16:31N 53°31' E 008°08'0 0.0
2015-Jul-05 15:31N 53°31' E 008°08'0 0.0
2015-Jul-05 14:31N 53°31' E 008°08'0 0.0
2015-Jul-05 13:31N 53°31' E 008°08'0 0.0
2015-Jul-05 12:28N 53°31' E 008°08'0 0.0
2015-Jul-05 11:22N 53°31' E 008°08'0 0.0
2015-Jul-05 10:31N 53°31' E 008°08'0 0.0
2015-Jul-05 09:22N 53°31' E 008°08'0 0.0
2015-Jul-05 08:31N 53°31' E 008°08'0 0.0
2015-Jul-05 07:25N 53°31' E 008°08'0 0.0
2015-Jul-05 06:28N 53°31' E 008°08'0 0.0
2015-Jul-05 05:32N 53°31' E 008°08'0 0.0
2015-Jul-05 04:32N 53°31' E 008°08'0 0.0
2015-Jul-05 03:29N 53°31' E 008°08'0 0.0
2015-Jul-05 02:32N 53°31' E 008°08'0 0.0
2015-Jul-05 01:32N 53°31' E 008°08'0 0.0
2015-Jul-05 00:29N 53°31' E 008°08'0 0.0
2015-Jul-04 23:32N 53°31' E 008°08'0 0.0
2015-Jul-04 22:26N 53°31' E 008°08'0 0.0
2015-Jul-04 21:29N 53°31' E 008°08'0 0.0
2015-Jul-04 20:32N 53°31' E 008°08'0 0.0
2015-Jul-04 19:30N 53°31' E 008°08'0 0.0
2015-Jul-04 18:33N 53°31' E 008°08'0 0.0
2015-Jul-04 17:24N 53°31' E 008°08'0 0.0
2015-Jul-04 16:24N 53°31' E 008°08'0 0.0
2015-Jul-04 15:21N 53°31' E 008°08'0 0.0
2015-Jul-04 14:27N 53°31' E 008°08'0 0.0
2015-Jul-04 12:24N 53°31' E 008°08'0 0.0
2015-Jul-04 11:30N 53°31' E 008°08'0 0.0
2015-Jul-04 10:33N 53°31' E 008°08'1 1.3
2015-Jul-04 09:33N 53°32' E 008°09'4 4.4
2015-Jul-04 08:33N 53°36' E 008°09'9 9.1
2015-Jul-04 07:33N 53°45' E 008°03'7 7.2
2015-Jul-04 06:33N 53°49' E 007°55'7 6.9
2015-Jul-04 05:33N 53°53' E 007°44'7 6.7
2015-Jul-04 04:33N 53°58' E 007°38'7 7.0
2015-Jul-04 03:33N 54°04' E 007°31'6 6.1
2015-Jul-04 02:33N 54°09' E 007°26'6 6.2
2015-Jul-04 01:33N 54°15' E 007°21'7 6.7
2015-Jul-04 00:33N 54°21' E 007°16'8 8.1
2015-Jul-03 23:33N 54°27' E 007°07'10 9.6
2015-Jul-03 22:34N 54°33' E 006°54'1010.0
2015-Jul-03 21:33N 54°39' E 006°40'39 2.2
2015-Jul-03 03:24N 55°18' E 006°46'120 5.4
2015-Jul-02 05:20N 57°11' E 008°01'8 9.4
2015-Jul-02 04:32N 57°16' E 008°11'37 9.3
2015-Jul-02 00:32N 57°35' E 009°10'13 9.3
2015-Jul-01 23:08N 57°41' E 009°31'5 9.2
2015-Jul-01 22:33N 57°44' E 009°40'9 9.1
2015-Jul-01 21:33N 57°48' E 009°55'10 9.5
2015-Jul-01 20:33N 57°50' E 010°12'9 9.1
2015-Jul-01 19:33N 57°50' E 010°29'9 8.9
2015-Jul-01 18:33N 57°51' E 010°46'9 9.0
2015-Jul-01 17:33N 57°45' E 010°58'9 9.2
2015-Jul-01 16:33N 57°38' E 011°10'10 9.9
2015-Jul-01 15:33N 57°31' E 011°22'10 9.8
2015-Jul-01 14:33N 57°22' E 011°30'1010.0
2015-Jul-01 13:33N 57°13' E 011°37'10 9.8
2015-Jul-01 12:33N 57°03' E 011°42'10 9.7
2015-Jul-01 11:33N 56°54' E 011°48'10 9.5
2015-Jul-01 10:33N 56°45' E 011°54'10 9.9
2015-Jul-01 09:34N 56°37' E 011°44'10 9.7
2015-Jul-01 08:33N 56°28' E 011°35'9 9.2
2015-Jul-01 07:33N 56°20' E 011°27'9 9.0
2015-Jul-01 06:33N 56°12' E 011°19'9 9.1
2015-Jul-01 05:33N 56°05' E 011°09'10 9.6
2015-Jul-01 04:33N 55°57' E 011°00'74 9.1
2015-Jun-30 20:28N 54°44' E 010°54'7 7.6
2015-Jun-30 19:33N 54°38' E 010°46'9 9.2
2015-Jun-30 18:33N 54°33' E 010°33'9 9.2
2015-Jun-30 17:33N 54°29' E 010°18'8 8.1
2015-Jun-30 16:33N 54°22' E 010°11'4 3.7
2015-Jun-30 15:32N 54°19' E 010°08'0 0.0
2015-Jun-30 14:32N 54°19' E 010°08'0 0.0
2015-Jun-30 13:32N 54°19' E 010°08'0 0.0
2015-Jun-30 12:32N 54°19' E 010°08'0 0.0
2015-Jun-30 11:32N 54°19' E 010°08'0 0.0
2015-Jun-30 10:32N 54°19' E 010°08'0 0.0
2015-Jun-30 09:29N 54°19' E 010°08'0 0.0
2015-Jun-30 08:32N 54°19' E 010°08'0 0.0
2015-Jun-30 07:32N 54°19' E 010°08'0 0.0
2015-Jun-30 06:32N 54°19' E 010°08'0 0.0
2015-Jun-30 05:32N 54°19' E 010°08'0 0.0
2015-Jun-30 04:32N 54°19' E 010°08'0 0.0
2015-Jun-30 03:32N 54°19' E 010°08'0 0.0
2015-Jun-30 02:32N 54°19' E 010°08'0 0.0
2015-Jun-30 01:32N 54°19' E 010°08'0 0.0
2015-Jun-30 00:32N 54°19' E 010°08'0 0.0
2015-Jun-29 23:32N 54°19' E 010°08'0 0.0
2015-Jun-29 22:32N 54°19' E 010°08'0 0.0
2015-Jun-29 21:32N 54°19' E 010°08'0 0.0
2015-Jun-29 20:29N 54°19' E 010°08'0 0.0
2015-Jun-29 19:32N 54°19' E 010°08'0 0.0
2015-Jun-29 18:32N 54°19' E 010°08'0 0.0
2015-Jun-29 17:29N 54°19' E 010°08'0 0.0
2015-Jun-29 16:32N 54°19' E 010°08'0 0.0
2015-Jun-29 15:29N 54°19' E 010°08'0 0.0
2015-Jun-29 14:32N 54°19' E 010°08'0 0.0
2015-Jun-29 13:32N 54°19' E 010°08'0 0.0
2015-Jun-29 12:29N 54°19' E 010°08'0 0.0
2015-Jun-29 11:32N 54°19' E 010°08'0 0.0
2015-Jun-29 10:32N 54°19' E 010°08'0 0.0
2015-Jun-29 09:26N 54°19' E 010°08'0 0.0
2015-Jun-29 08:32N 54°19' E 010°08'0 0.0
2015-Jun-29 07:32N 54°19' E 010°08'0 0.0
2015-Jun-29 06:32N 54°19' E 010°08'0 0.0
2015-Jun-29 05:32N 54°19' E 010°08'0 0.0
2015-Jun-29 04:32N 54°19' E 010°08'0 0.0
2015-Jun-29 03:32N 54°19' E 010°08'0 0.0
2015-Jun-29 02:32N 54°19' E 010°08'0 0.0
2015-Jun-29 01:29N 54°19' E 010°08'0 0.0
2015-Jun-29 00:32N 54°19' E 010°08'0 0.0
2015-Jun-28 23:29N 54°19' E 010°08'0 0.0
2015-Jun-28 22:32N 54°19' E 010°08'0 0.0
2015-Jun-28 21:32N 54°19' E 010°08'0 0.0
2015-Jun-28 20:32N 54°19' E 010°08'0 0.0
2015-Jun-28 19:32N 54°19' E 010°08'0 0.0
2015-Jun-28 14:32N 54°19' E 010°08'0 0.0
2015-Jun-28 13:32N 54°19' E 010°08'0 0.0
2015-Jun-28 12:32N 54°19' E 010°08'0 0.0
2015-Jun-28 11:32N 54°19' E 010°08'0 0.0
2015-Jun-28 10:29N 54°19' E 010°08'0 0.0
2015-Jun-28 09:29N 54°19' E 010°08'0 0.0
2015-Jun-28 08:32N 54°19' E 010°08'0 0.0
2015-Jun-28 07:29N 54°19' E 010°08'0 0.0
2015-Jun-28 06:32N 54°19' E 010°08'0 0.0
2015-Jun-28 05:32N 54°19' E 010°08'0 0.0
2015-Jun-28 04:32N 54°19' E 010°08'  

Dump ship's entire track history